Time;durP1;ratioP1;P1;durP2;ratioP2;P2;SDS_P1;SDS_P2;PMS_P1;PMS_P2;Temp;Humidity;BMP_temperature;BMP_pressure;BME280_temperature;BME280_humidity;BME280_pressure;Samples;Min_cycle;Max_cycle;Signal;HPM_P1;HPM_P2
2022/09/01 00:01:40;;;;;;;11.57;8.18;;;;;;;23.30;100.00;151895.97;5094748;28;20227;-61
2022/09/01 00:04:08;;;;;;;10.48;9.43;;;;;;;23.33;100.00;147871.25;5094723;28;20188;-60
2022/09/01 00:06:39;;;;;;;9.35;8.85;;;;;;;23.29;100.00;150928.16;5094823;28;20204;-60
2022/09/01 00:09:11;;;;;;;10.07;8.85;;;;;;;23.38;100.00;150896.47;5094904;28;20639;-60
2022/09/01 00:11:39;;;;;;;9.70;8.55;;;;;;;23.36;100.00;150276.38;5094837;28;20184;-60
2022/09/01 00:14:07;;;;;;;9.90;8.85;;;;;;;23.53;100.00;151954.69;5094504;28;20185;-60
2022/09/01 00:16:34;;;;;;;10.07;9.07;;;;;;;23.52;100.00;151952.13;5094394;28;20180;-60
2022/09/01 00:19:03;;;;;;;12.05;8.73;;;;;;;23.48;100.00;151943.19;5093637;28;20507;-61
2022/09/01 00:21:33;;;;;;;9.70;8.73;;;;;;;23.41;100.00;151925.28;5094299;28;20271;-61
2022/09/01 00:24:00;;;;;;;9.23;8.55;;;;;;;23.25;100.00;145668.38;5094680;28;20635;-61
2022/09/01 00:26:28;;;;;;;10.35;9.20;;;;;;;23.27;100.00;143815.63;5094196;28;20204;-60
2022/09/01 00:28:58;;;;;;;10.60;9.70;;;;;;;23.25;100.00;145782.69;5094559;28;20192;-60
2022/09/01 00:31:25;;;;;;;15.13;9.85;;;;;;;23.17;100.00;139279.63;5094446;28;20219;-60
2022/09/01 00:33:53;;;;;;;10.38;9.45;;;;;;;22.95;100.00;130751.63;5094231;28;20188;-60
2022/09/01 00:36:22;;;;;;;13.63;9.38;;;;;;;23.00;100.00;126363.50;5094101;28;20188;-61
2022/09/01 00:38:50;;;;;;;10.07;9.32;;;;;;;22.85;100.00;113504.09;5093980;28;20187;-60
2022/09/01 00:41:19;;;;;;;10.27;9.68;;;;;;;22.74;100.00;100369.00;5094035;28;20214;-61
2022/09/01 00:43:48;;;;;;;9.63;9.00;;;;;;;22.60;100.00;87284.16;5094187;28;20632;-60
2022/09/01 00:46:20;;;;;;;10.65;8.90;;;;;;;22.52;100.00;78925.63;5093788;28;20318;-61
2022/09/01 00:48:51;;;;;;;9.82;8.95;;;;;;;22.57;100.00;73268.16;5094163;28;20275;-60
2022/09/01 00:51:18;;;;;;;10.88;9.55;;;;;;;22.51;100.00;72594.97;5093731;28;20184;-60
2022/09/01 00:53:48;;;;;;;11.10;10.27;;;;;;;22.55;100.00;71602.16;5093745;28;20188;-60
2022/09/01 00:56:15;;;;;;;10.80;9.48;;;;;;;22.56;100.00;69940.06;5093986;28;20188;-61
2022/09/01 00:58:42;;;;;;;9.35;8.68;;;;;;;22.56;100.00;71602.78;5094095;28;20184;-60
2022/09/01 01:01:11;;;;;;;9.57;8.65;;;;;;;22.56;100.00;74932.50;5093883;28;20558;-61
2022/09/01 01:03:44;;;;;;;9.85;9.10;;;;;;;22.69;100.00;79282.69;5093606;28;20184;-61
2022/09/01 01:06:12;;;;;;;8.80;8.30;;;;;;;22.62;100.00;81274.94;5093396;28;20203;-60
2022/09/01 01:08:48;;;;;;;9.05;8.45;;;;;;;22.54;100.00;76594.97;5093690;28;20556;-61
2022/09/01 01:11:17;;;;;;;9.18;7.72;;;;;;;22.53;100.00;73596.69;5093661;28;20677;-60
2022/09/01 01:13:49;;;;;;;8.77;8.13;;;;;;;22.49;100.00;71261.56;5093634;28;20188;-60
2022/09/01 01:16:16;;;;;;;10.80;8.13;;;;;;;22.53;100.00;71599.72;5093412;28;20650;-59
2022/09/01 01:18:44;;;;;;;8.98;8.05;;;;;;;22.60;100.00;75937.00;5092449;28;20654;-60
2022/09/01 01:24:10;;;;;;;10.15;9.20;;;;;;;22.72;100.00;85964.03;5093307;28;20249;-60
2022/09/01 01:26:39;;;;;;;9.20;8.27;;;;;;;22.75;100.00;89312.44;5092935;28;20208;-60
2022/09/01 01:29:08;;;;;;;8.38;7.78;;;;;;;22.56;100.00;85272.50;5093003;28;20226;-60
2022/09/01 01:31:36;;;;;;;9.02;8.00;;;;;;;22.50;100.00;85263.81;5092980;28;20192;-60
2022/09/01 01:34:05;;;;;;;7.63;7.05;;;;;;;22.70;100.00;90643.28;5093231;28;20677;-60
2022/09/01 01:36:35;;;;;;;8.40;7.57;;;;;;;22.70;100.00;91647.44;5092877;28;20220;-60
2022/09/01 01:39:06;;;;;;;9.68;7.22;;;;;;;22.74;100.00;93663.69;5093223;28;20559;-60
2022/09/01 01:41:39;;;;;;;7.95;7.45;;;;;;;22.80;100.00;103065.47;5093120;28;20192;-61
2022/09/01 01:44:08;;;;;;;8.05;7.35;;;;;;;22.85;100.00;106099.00;5092817;28;20184;-60
2022/09/01 01:46:39;;;;;;;7.68;7.07;;;;;;;22.76;100.00;112140.50;5092120;28;20235;-60
2022/09/01 01:49:06;;;;;;;8.82;7.03;;;;;;;22.77;100.00;111131.25;5092828;28;20180;-61
2022/09/01 01:51:33;;;;;;;8.80;7.63;;;;;;;22.74;100.00;106079.34;5093163;28;20198;-60
2022/09/01 01:54:04;;;;;;;7.45;6.85;;;;;;;22.75;100.00;107763.34;5092579;28;20220;-60
2022/09/01 01:56:34;;;;;;;8.38;7.60;;;;;;;22.81;100.00;112485.81;5092968;28;20637;-60
2022/09/01 01:59:01;;;;;;;8.20;7.80;;;;;;;22.78;100.00;115512.78;5092916;28;20263;-60
2022/09/01 02:01:30;;;;;;;8.05;7.57;;;;;;;22.70;100.00;110109.28;5091226;28;20192;-59
2022/09/01 02:03:58;;;;;;;8.55;7.70;;;;;;;22.61;100.00;108746.84;5092875;28;20300;-60
2022/09/01 02:06:26;;;;;;;8.40;7.88;;;;;;;22.63;100.00;110432.78;5092431;28;20180;-62
2022/09/01 02:08:56;;;;;;;8.95;8.02;;;;;;;22.60;100.00;111099.38;5092329;28;20199;-61
2022/09/01 02:11:24;;;;;;;13.70;7.93;;;;;;;22.47;100.00;109393.81;5092584;28;20696;-60
2022/09/01 02:13:56;;;;;;;8.27;7.78;;;;;;;22.55;100.00;108734.91;5092694;28;20200;-61
2022/09/01 02:16:23;;;;;;;8.27;7.75;;;;;;;22.51;100.00;109736.63;5092216;28;20181;-60
2022/09/01 02:18:52;;;;;;;9.40;7.78;;;;;;;22.34;100.00;105000.91;5092483;28;20184;-60
2022/09/01 02:21:21;;;;;;;9.18;8.25;;;;;;;22.36;100.00;106348.19;5092564;28;20630;-61
2022/09/01 02:23:59;;;;;;;7.60;7.10;;;;;;;22.39;100.00;101316.09;5092088;28;20212;-60
2022/09/01 02:26:30;;;;;;;8.23;7.30;;;;;;;22.31;100.00;93595.59;5091270;28;20601;-60
2022/09/01 02:28:57;;;;;;;9.13;8.30;;;;;;;22.25;100.00;95260.84;5092165;28;20184;-60
2022/09/01 02:31:26;;;;;;;8.55;7.70;;;;;;;22.21;100.00;93245.09;5091908;28;20184;-60
2022/09/01 02:33:55;;;;;;;8.77;8.20;;;;;;;22.01;100.00;89536.25;5092052;28;20202;-60
2022/09/01 02:36:23;;;;;;;8.40;7.80;;;;;;;21.97;100.00;87859.72;5092275;28;20179;-60
2022/09/01 02:38:51;;;;;;;8.38;7.82;;;;;;;22.03;100.00;85530.41;5091942;28;20254;-61
2022/09/01 02:41:23;;;;;;;7.33;6.93;;;;;;;21.88;100.00;81506.88;5091908;28;20198;-60
2022/09/01 02:43:51;;;;;;;8.30;7.43;;;;;;;22.02;100.00;79859.56;5092290;28;20616;-60
2022/09/01 02:46:22;;;;;;;7.18;6.80;;;;;;;21.96;100.00;83185.34;5091823;28;20231;-60
2022/09/01 02:48:50;;;;;;;8.40;7.88;;;;;;;21.99;100.00;86860.03;5092026;28;20359;-60
2022/09/01 02:51:21;;;;;;;10.20;7.70;;;;;;;22.08;100.00;92890.00;5091868;28;20180;-60
2022/09/01 02:53:51;;;;;;;9.50;7.45;;;;;;;22.02;100.00;90540.50;5092482;28;20180;-60
2022/09/01 02:56:19;;;;;;;7.60;7.00;;;;;;;22.01;100.00;91542.00;5092136;28;20194;-60
2022/09/01 02:58:46;;;;;;;7.68;7.00;;;;;;;21.96;100.00;94544.78;5094560;28;20673;-60
2022/09/01 03:01:19;;;;;;;8.00;7.43;;;;;;;22.08;100.00;103277.53;5096224;28;20642;-60
2022/09/01 03:03:46;;;;;;;7.90;7.25;;;;;;;22.01;100.00;110318.31;5095867;28;20184;-60
2022/09/01 03:06:13;;;;;;;7.68;7.30;;;;;;;22.15;100.00;115391.16;5095737;28;20191;-60
2022/09/01 03:08:42;;;;;;;7.75;7.20;;;;;;;22.11;100.00;115047.59;5095996;28;20286;-60
2022/09/01 03:11:10;;;;;;;8.80;7.40;;;;;;;22.08;100.00;120432.94;5096023;28;20666;-60
2022/09/01 03:13:39;;;;;;;7.97;7.13;;;;;;;21.88;100.00;118708.28;5096037;28;20222;-60
2022/09/01 03:16:06;;;;;;;7.15;6.80;;;;;;;22.04;100.00;123798.25;5095961;28;20195;-60
2022/09/01 03:18:33;;;;;;;7.43;6.75;;;;;;;22.06;100.00;131572.75;5095866;28;20628;-60
2022/09/01 03:21:01;;;;;;;6.90;6.60;;;;;;;22.09;100.00;134964.84;5096025;28;20184;-60
2022/09/01 03:23:30;;;;;;;7.00;6.50;;;;;;;22.11;100.00;140729.22;5095824;28;20278;-59
2022/09/01 03:25:59;;;;;;;7.63;7.22;;;;;;;22.10;100.00;141405.25;5095968;28;20184;-60
2022/09/01 03:28:26;;;;;;;7.13;6.82;;;;;;;22.17;100.00;148930.53;5095671;28;20204;-60
2022/09/01 03:30:56;;;;;;;8.07;7.07;;;;;;;22.16;100.00;150508.66;5095316;28;20188;-59
2022/09/01 03:33:24;;;;;;;7.50;7.00;;;;;;;22.12;100.00;151598.69;5095999;28;20211;-61
2022/09/01 03:35:51;;;;;;;8.15;7.45;;;;;;;22.01;100.00;151570.66;5095242;28;20233;-61
2022/09/01 03:38:22;;;;;;;11.30;7.07;;;;;;;22.11;100.00;151596.13;5095182;28;20234;-60
2022/09/01 03:40:51;;;;;;;7.10;6.47;;;;;;;22.07;100.00;151587.22;5095213;28;20189;-60
2022/09/01 03:43:26;;;;;;;7.50;6.93;;;;;;;22.13;100.00;151602.53;5095073;28;20184;-60
2022/09/01 03:45:55;;;;;;;7.25;6.70;;;;;;;21.93;100.00;151550.28;5094914;28;20227;-61
2022/09/01 03:48:25;;;;;;;7.60;6.22;;;;;;;22.10;100.00;151593.63;5095044;28;20272;-59
2022/09/01 03:50:52;;;;;;;7.40;6.90;;;;;;;22.07;100.00;151587.22;5094962;28;20181;-61
2022/09/01 03:53:23;;;;;;;6.90;6.60;;;;;;;22.02;100.00;151574.50;5095174;28;20666;-60
2022/09/01 03:55:51;;;;;;;7.28;6.95;;;;;;;22.17;100.00;151612.72;5095492;28;20187;-59
2022/09/01 03:58:20;;;;;;;6.85;6.55;;;;;;;22.09;100.00;151592.34;5094671;28;20302;-60
2022/09/01 04:00:50;;;;;;;7.85;7.10;;;;;;;22.18;100.00;151615.28;5094732;28;20253;-60
2022/09/01 04:03:20;;;;;;;7.20;6.55;;;;;;;22.19;100.00;151617.81;5094797;28;20190;-60
2022/09/01 04:05:50;;;;;;;8.48;7.70;;;;;;;22.26;100.00;151634.41;5094875;28;20200;-61
2022/09/01 04:08:19;;;;;;;7.85;7.22;;;;;;;22.11;100.00;151597.41;5094305;28;20670;-59
2022/09/01 04:10:49;;;;;;;7.45;6.85;;;;;;;22.42;100.00;151673.91;5094839;28;20558;-60
2022/09/01 04:13:17;;;;;;;6.97;6.32;;;;;;;22.43;100.00;151676.47;5094489;28;20188;-60
2022/09/01 04:15:46;;;;;;;7.38;6.70;;;;;;;22.53;100.00;151703.25;5094690;28;20184;-61
2022/09/01 04:18:19;;;;;;;7.32;6.68;;;;;;;22.88;100.00;151790.03;5094693;28;20576;-60
2022/09/01 04:20:48;;;;;;;6.53;6.22;;;;;;;23.03;100.00;151829.59;5094341;28;20180;-61
2022/09/01 04:23:20;;;;;;;6.47;6.10;;;;;;;23.19;100.00;151869.13;5094275;28;20224;-60
2022/09/01 04:25:49;;;;;;;11.63;6.35;;;;;;;23.35;100.00;151909.97;5094350;28;20187;-61
2022/09/01 04:28:21;;;;;;;7.18;6.53;;;;;;;23.43;100.00;151930.44;5094205;28;20216;-59
2022/09/01 04:30:54;;;;;;;6.95;6.57;;;;;;;23.67;100.00;151991.72;5094465;28;20188;-60
2022/09/01 04:33:23;;;;;;;7.18;6.30;;;;;;;23.66;100.00;151989.16;5094576;28;20566;-59
2022/09/01 04:35:55;;;;;;;6.35;5.95;;;;;;;23.67;100.00;151990.44;5094329;28;20628;-60
2022/09/01 04:38:23;;;;;;;6.68;5.68;;;;;;;24.21;100.00;152127.06;5094301;28;20630;-60
2022/09/01 04:40:51;;;;;;;9.13;8.02;;;;;;;24.22;100.00;152128.34;5094239;28;20188;-60
2022/09/01 04:43:18;;;;;;;6.57;6.22;;;;;;;24.42;100.00;152179.41;5093861;28;20190;-59
2022/09/01 04:45:51;;;;;;;6.47;6.18;;;;;;;24.51;100.00;152202.41;5093692;28;20227;-60
2022/09/01 04:48:21;;;;;;;6.50;5.93;;;;;;;24.28;100.00;152144.91;5094030;28;20204;-60
2022/09/01 04:50:50;;;;;;;6.18;5.65;;;;;;;24.17;100.00;152115.56;5094065;28;20688;-60
2022/09/01 04:53:18;;;;;;;5.88;5.57;;;;;;;24.62;100.00;152230.47;5094088;28;20652;-60
2022/09/01 04:55:47;;;;;;;6.35;5.90;;;;;;;24.91;100.00;152304.59;5094063;28;20272;-60
2022/09/01 04:58:16;;;;;;;6.13;5.53;;;;;;;25.00;100.00;152326.31;5093927;28;20180;-60
2022/09/01 05:00:46;;;;;;;6.97;6.30;;;;;;;25.04;100.00;152336.53;5093955;28;20192;-60
2022/09/01 05:03:15;;;;;;;8.85;6.43;;;;;;;25.08;100.00;152346.75;5093835;28;20713;-60
2022/09/01 05:05:46;;;;;;;6.25;5.88;;;;;;;25.18;100.00;152371.03;5093858;28;20647;-60
2022/09/01 05:08:16;;;;;;;6.15;5.25;;;;;;;25.89;100.00;152552.53;5093674;28;20208;-60
2022/09/01 05:10:46;;;;;;;8.93;5.97;;;;;;;25.71;100.00;152506.56;5093383;28;20194;-59
2022/09/01 05:13:16;;;;;;;7.78;5.63;;;;;;;25.76;100.00;152518.03;5093772;28;20665;-60
2022/09/01 05:15:45;;;;;;;6.05;5.75;;;;;;;25.92;100.00;152560.25;5093272;28;20220;-60
2022/09/01 05:18:14;;;;;;;6.65;6.05;;;;;;;25.99;100.00;152576.84;5093151;28;20188;-60
2022/09/01 05:20:42;;;;;;;6.45;5.82;;;;;;;26.72;100.00;152762.28;5092638;28;20562;-60
2022/09/01 05:23:13;;;;;;;5.55;5.35;;;;;;;28.07;100.00;153103.97;5093455;28;20188;-60
2022/09/01 05:25:42;;;;;;;85.25;72.53;;;;;;;28.58;100.00;153232.03;5093204;28;20223;-61
2022/09/01 05:28:10;;;;;;;7.68;7.18;;;;;;;28.93;100.00;153321.72;5092882;28;20215;-61
2022/09/01 05:30:42;;;;;;;103.78;92.30;;;;;;;29.42;100.00;153444.72;5092708;28;20188;-61
2022/09/01 05:33:11;;;;;;;6.18;5.88;;;;;;;29.20;100.00;153388.28;5093386;28;20199;-61
2022/09/01 05:35:42;;;;;;;6.03;5.53;;;;;;;28.98;100.00;153334.50;5092724;28;20180;-61
2022/09/01 05:38:14;;;;;;;5.90;5.60;;;;;;;28.94;100.00;153323.03;5092630;28;20192;-62
2022/09/01 05:40:42;;;;;;;5.60;5.25;;;;;;;28.70;100.00;153261.53;5092430;28;20195;-62
2022/09/01 05:43:11;;;;;;;7.88;6.95;;;;;;;29.93;100.00;153574.16;5092715;28;20184;-60
2022/09/01 05:45:42;;;;;;;6.88;5.72;;;;;;;30.93;99.13;153826.75;5091182;28;20232;-61
2022/09/01 05:48:11;;;;;;;5.45;4.97;;;;;;;31.73;91.56;154030.75;5092605;28;20627;-61
2022/09/01 05:50:41;;;;;;;6.15;5.72;;;;;;;31.44;93.71;153957.59;5092418;28;20215;-61
2022/09/01 05:53:15;;;;;;;5.25;5.05;;;;;;;31.56;90.66;153987.13;5092808;28;20199;-61
2022/09/01 05:55:43;;;;;;;5.90;5.40;;;;;;;32.25;88.03;154162.97;5092031;28;20248;-60
2022/09/01 05:58:12;;;;;;;20.48;6.30;;;;;;;31.80;90.42;154047.41;5092421;28;20654;-61
2022/09/01 06:00:41;;;;;;;6.75;6.03;;;;;;;30.85;97.20;153807.53;5092224;28;20196;-60
2022/09/01 06:03:09;;;;;;;5.70;5.30;;;;;;;29.58;100.00;153484.47;5092189;28;20194;-61
2022/09/01 06:05:36;;;;;;;7.63;5.80;;;;;;;28.91;100.00;153315.31;5092428;28;20679;-60
2022/09/01 06:08:04;;;;;;;9.52;6.00;;;;;;;29.37;100.00;153431.91;5091937;28;20207;-61
2022/09/01 06:10:36;;;;;;;15.50;5.30;;;;;;;29.72;100.00;153521.59;5092075;28;20241;-61
2022/09/01 06:13:04;;;;;;;12.95;6.07;;;;;;;29.28;100.00;153410.06;5092558;28;20192;-61
2022/09/01 06:15:31;;;;;;;5.93;5.22;;;;;;;29.54;100.00;153474.16;5092078;28;20306;-60
2022/09/01 06:17:59;;;;;;;6.03;5.32;;;;;;;30.40;100.00;153693.34;5092258;28;20631;-60
2022/09/01 06:20:28;;;;;;;6.18;5.60;;;;;;;30.70;100.00;153769.03;5091869;28;20280;-60
2022/09/01 06:22:54;;;;;;;7.20;6.53;;;;;;;30.23;100.00;153649.78;5091820;28;20250;-61
2022/09/01 06:25:22;;;;;;;5.65;5.28;;;;;;;29.33;100.00;153422.94;5091723;28;20187;-60
2022/09/01 06:27:51;;;;;;;23.20;6.78;;;;;;;29.10;100.00;153362.72;5092170;28;20580;-61
2022/09/01 06:30:21;;;;;;;8.05;5.82;;;;;;;28.63;100.00;153243.56;5091918;28;20195;-60
2022/09/01 06:32:48;;;;;;;5.80;4.93;;;;;;;28.84;100.00;153297.38;5091776;28;20627;-60
2022/09/01 06:35:16;;;;;;;5.78;5.22;;;;;;;29.16;100.00;153378.03;5092012;28;20558;-61
2022/09/01 06:37:44;;;;;;;6.22;5.70;;;;;;;29.26;100.00;153404.97;5091873;28;20275;-61
2022/09/01 06:40:16;;;;;;;5.32;4.95;;;;;;;29.62;100.00;153495.94;5084542;28;20290;-61
2022/09/01 06:42:46;;;;;;;6.15;5.65;;;;;;;29.75;100.00;153527.97;5071837;28;20242;-61
2022/09/01 06:45:16;;;;;;;6.93;5.65;;;;;;;29.98;100.00;153587.00;5071730;28;20258;-61
2022/09/01 06:47:46;;;;;;;5.85;5.65;;;;;;;30.09;100.00;153615.16;5071786;28;20180;-61
2022/09/01 06:50:15;;;;;;;6.03;5.43;;;;;;;30.22;100.00;153647.19;5071690;28;20240;-62
2022/09/01 06:52:43;;;;;;;5.90;5.40;;;;;;;30.72;100.00;153774.19;5071576;28;20184;-61
2022/09/01 06:55:11;;;;;;;5.97;5.57;;;;;;;31.49;99.44;153969.09;5071575;28;20189;-61
2022/09/01 06:57:39;;;;;;;5.75;5.28;;;;;;;32.38;91.73;154195.03;5071340;28;20286;-62
2022/09/01 07:00:16;;;;;;;9.13;5.57;;;;;;;32.77;90.53;154293.88;5076806;28;20195;-62
2022/09/01 07:02:46;;;;;;;6.55;6.25;;;;;;;33.16;86.13;154392.75;5079072;28;20211;-61
2022/09/01 07:05:18;;;;;;;6.13;5.72;;;;;;;33.34;84.77;154439.00;5080701;28;20212;-61
2022/09/01 07:07:50;;;;;;;6.30;6.00;;;;;;;33.25;86.89;154415.88;5085142;28;20192;-61
2022/09/01 07:10:19;;;;;;;6.53;5.88;;;;;;;32.81;89.04;154305.41;5073266;28;20266;-60
2022/09/01 07:12:47;;;;;;;7.72;5.65;;;;;;;32.49;92.70;154224.53;5083408;28;20199;-60
2022/09/01 07:15:18;;;;;;;5.60;5.10;;;;;;;32.25;94.86;154162.97;5091136;28;20654;-60
2022/09/01 07:17:50;;;;;;;5.55;5.15;;;;;;;32.24;96.18;154159.09;5085126;28;20211;-61
2022/09/01 07:20:19;;;;;;;7.05;6.50;;;;;;;32.18;95.09;154146.25;5090856;28;20196;-61
2022/09/01 07:22:47;;;;;;;11.18;10.23;;;;;;;32.25;95.40;154161.66;5091401;28;20191;-60
2022/09/01 07:25:16;;;;;;;6.00;5.80;;;;;;;32.29;92.86;154171.94;5091648;28;20558;-62
2022/09/01 07:27:49;;;;;;;5.85;5.50;;;;;;;32.46;93.94;154216.81;5091842;28;20268;-61
2022/09/01 07:30:17;;;;;;;5.57;5.10;;;;;;;31.99;97.09;154097.47;5091433;28;20292;-61
2022/09/01 07:32:45;;;;;;;7.47;5.28;;;;;;;32.28;97.51;154170.66;5091650;28;20291;-61
2022/09/01 07:35:17;;;;;;;8.07;5.88;;;;;;;32.57;93.08;154243.78;5091509;28;20719;-61
2022/09/01 07:37:43;;;;;;;5.93;5.38;;;;;;;32.33;91.35;154182.19;5091289;28;20198;-60
2022/09/01 07:40:19;;;;;;;7.63;5.70;;;;;;;32.26;93.25;154165.47;5091314;28;20187;-60
2022/09/01 07:42:48;;;;;;;6.15;5.65;;;;;;;32.47;91.97;154218.09;5091564;28;20274;-61
2022/09/01 07:45:16;;;;;;;5.70;5.30;;;;;;;32.50;91.23;154225.81;5094371;28;20669;-60
2022/09/01 07:47:44;;;;;;;6.28;5.70;;;;;;;32.67;92.19;154268.22;5095122;28;20176;-60
2022/09/01 07:50:14;;;;;;;6.72;6.10;;;;;;;32.86;91.63;154316.97;5094956;28;20207;-60
2022/09/01 07:52:42;;;;;;;6.95;5.93;;;;;;;33.01;90.98;154356.81;5095254;28;20678;-60
2022/09/01 07:55:11;;;;;;;6.32;5.80;;;;;;;32.78;89.69;154297.72;5095021;28;20180;-61
2022/09/01 07:57:41;;;;;;;7.60;6.45;;;;;;;32.74;91.41;154287.47;5095065;28;20585;-60
2022/09/01 08:00:13;;;;;;;7.38;5.63;;;;;;;32.99;88.99;154350.34;5095046;28;20733;-62
2022/09/01 08:02:40;;;;;;;6.53;5.80;;;;;;;32.90;87.07;154327.25;5094670;28;20275;-62
2022/09/01 08:05:08;;;;;;;10.50;9.85;;;;;;;33.29;87.63;154427.44;5094642;28;20184;-61
2022/09/01 08:07:37;;;;;;;5.78;5.50;;;;;;;31.73;91.08;154030.75;5094753;28;20188;-61
2022/09/01 08:10:07;;;;;;;6.63;5.80;;;;;;;30.85;96.77;153807.53;5094656;28;20208;-61
2022/09/01 08:12:35;;;;;;;7.90;6.03;;;;;;;30.78;99.06;153789.53;5094596;28;20203;-60
2022/09/01 08:15:03;;;;;;;5.78;5.47;;;;;;;30.77;97.83;153788.25;5094598;28;20245;-62
2022/09/01 08:17:30;;;;;;;6.20;5.55;;;;;;;30.96;98.63;153834.41;5094665;28;20190;-60
2022/09/01 08:19:57;;;;;;;8.93;6.20;;;;;;;31.05;96.45;153857.56;5094742;28;20191;-61
2022/09/01 08:22:25;;;;;;;6.43;6.10;;;;;;;31.25;96.20;153910.13;5094783;28;20507;-60
2022/09/01 08:24:56;;;;;;;6.30;5.93;;;;;;;31.28;97.98;153917.81;5094807;28;20275;-61
2022/09/01 08:27:22;;;;;;;5.95;5.72;;;;;;;31.11;94.38;153874.22;5094886;28;20677;-61
2022/09/01 08:29:52;;;;;;;7.93;6.35;;;;;;;30.55;99.51;153731.88;5094504;28;20570;-58
2022/09/01 08:32:21;;;;;;;7.60;6.80;;;;;;;30.86;100.00;153810.06;5077204;28;20295;-62
2022/09/01 08:34:48;;;;;;;11.38;6.72;;;;;;;31.09;100.00;153867.81;5074128;28;20196;-61
2022/09/01 08:37:15;;;;;;;10.70;6.78;;;;;;;31.36;100.00;153935.78;5073753;28;20184;-61
2022/09/01 08:39:45;;;;;;;5.93;5.68;;;;;;;31.76;96.49;154038.44;5073799;28;20263;-61
2022/09/01 08:42:23;;;;;;;5.97;5.57;;;;;;;31.05;97.19;153857.56;5073901;28;20173;-61
2022/09/01 08:44:59;;;;;;;6.40;5.82;;;;;;;30.83;97.39;153802.38;5074027;28;20555;-61
2022/09/01 08:47:26;;;;;;;7.68;5.80;;;;;;;30.53;99.84;153725.44;5073460;28;20678;-61
2022/09/01 08:49:53;;;;;;;6.50;5.80;;;;;;;30.45;100.00;153706.22;5073492;28;20274;-60
2022/09/01 08:52:29;;;;;;;5.72;5.35;;;;;;;31.00;97.81;153846.03;5073926;28;20564;-61
2022/09/01 08:55:03;;;;;;;7.55;6.13;;;;;;;30.90;99.47;153820.31;5073790;28;20629;-61
2022/09/01 08:57:35;;;;;;;9.13;6.03;;;;;;;31.53;97.25;153980.66;5073501;28;20222;-60
2022/09/01 09:00:02;;;;;;;9.88;6.38;;;;;;;31.84;98.42;154057.66;5073865;28;20192;-62
2022/09/01 09:02:43;;;;;;;6.57;6.07;;;;;;;32.08;92.63;154120.56;5073525;28;20188;-61
2022/09/01 09:05:39;;;;;;;6.57;6.13;;;;;;;31.92;91.59;154079.47;5073307;28;20276;-62
2022/09/01 09:08:36;;;;;;;6.32;5.90;;;;;;;31.60;91.43;153998.69;5072898;28;20246;-61
2022/09/01 09:11:10;;;;;;;6.55;5.78;;;;;;;31.83;89.06;154056.38;5078402;28;20214;-61
2022/09/01 09:13:51;;;;;;;6.45;6.13;;;;;;;32.06;87.18;154114.13;5073196;28;20279;-62
2022/09/01 09:16:23;;;;;;;6.05;5.72;;;;;;;32.15;85.84;154137.28;5073351;28;20184;-61
2022/09/01 09:18:53;;;;;;;9.65;6.30;;;;;;;32.47;95.84;154219.38;5073250;28;20212;-60
2022/09/01 09:21:25;;;;;;;6.95;5.70;;;;;;;32.83;95.54;154310.56;5073330;28;20185;-61
2022/09/01 09:23:59;;;;;;;5.90;5.35;;;;;;;32.46;82.44;154215.56;5072869;28;20279;-61
2022/09/01 09:26:26;;;;;;;7.95;5.65;;;;;;;32.71;83.18;154279.78;5072858;28;20189;-60
2022/09/01 09:28:54;;;;;;;7.90;6.57;;;;;;;33.12;92.67;154382.44;5090398;28;20574;-62
2022/09/01 09:31:33;;;;;;;6.78;6.35;;;;;;;32.61;97.13;154255.38;5093623;28;20282;-61
2022/09/01 09:34:01;;;;;;;6.97;6.40;;;;;;;32.17;99.15;154142.38;5093074;28;20219;-60
2022/09/01 09:36:34;;;;;;;7.05;6.40;;;;;;;32.27;99.59;154168.06;5079704;28;20204;-61
2022/09/01 09:39:08;;;;;;;7.35;6.65;;;;;;;32.11;100.00;154128.31;5092375;28;20226;-61
2022/09/01 09:41:36;;;;;;;6.97;6.38;;;;;;;31.83;100.00;154056.38;5090687;28;20200;-62
2022/09/01 09:44:14;;;;;;;6.38;5.97;;;;;;;31.80;100.00;154048.69;5072424;28;20200;-61
2022/09/01 09:46:43;;;;;;;6.93;6.13;;;;;;;31.17;100.00;153889.63;5071194;28;20262;-61
2022/09/01 09:49:19;;;;;;;6.53;5.88;;;;;;;31.00;100.00;153846.03;5072201;28;20212;-61
2022/09/01 09:51:49;;;;;;;6.53;6.13;;;;;;;30.57;100.00;153735.69;5072241;28;20184;-61
2022/09/01 09:54:23;;;;;;;13.23;6.82;;;;;;;30.77;100.00;153786.97;5072220;28;20187;-61
2022/09/01 09:57:04;;;;;;;14.65;7.55;;;;;;;30.96;100.00;153834.41;5072180;28;20200;-61
2022/09/01 09:59:36;;;;;;;7.70;6.88;;;;;;;31.03;100.00;153853.69;5077848;28;20196;-61
2022/09/01 10:02:25;;;;;;;7.05;6.40;;;;;;;31.04;100.00;153856.28;5088207;28;20211;-62
2022/09/01 10:04:56;;;;;;;7.35;6.68;;;;;;;30.42;100.00;153697.22;5093057;28;20629;-61
2022/09/01 10:07:30;;;;;;;7.82;7.20;;;;;;;30.33;100.00;153676.72;5089748;28;20282;-61
2022/09/01 10:10:00;;;;;;;6.85;6.43;;;;;;;30.34;100.00;153678.00;5092307;28;20558;-61
2022/09/01 10:12:29;;;;;;;6.93;5.97;;;;;;;30.25;100.00;153656.22;5092722;28;20613;-63
2022/09/01 10:15:02;;;;;;;16.85;6.50;;;;;;;30.12;100.00;153622.88;5092521;28;20198;-61
2022/09/01 10:17:33;;;;;;;6.90;6.20;;;;;;;29.86;100.00;153557.47;5092038;28;20180;-62
2022/09/01 10:20:04;;;;;;;9.38;7.40;;;;;;;29.73;100.00;153522.88;5092642;28;20661;-60
2022/09/01 10:22:33;;;;;;;6.70;6.15;;;;;;;29.65;100.00;153503.66;5092359;28;20195;-61
2022/09/01 10:25:00;;;;;;;7.25;6.78;;;;;;;29.44;100.00;153451.16;5092522;28;20293;-60
2022/09/01 10:27:31;;;;;;;8.30;7.03;;;;;;;29.07;100.00;153355.03;5092348;28;20566;-60
2022/09/01 10:30:06;;;;;;;7.95;6.55;;;;;;;29.18;100.00;153383.19;5092393;28;20204;-61
2022/09/01 10:32:42;;;;;;;6.95;6.45;;;;;;;29.38;100.00;153435.75;5092281;28;20203;-61
2022/09/01 10:35:13;;;;;;;8.88;6.57;;;;;;;29.64;100.00;153499.81;5092496;28;20206;-62
2022/09/01 10:37:41;;;;;;;8.43;6.88;;;;;;;29.71;100.00;153517.72;5092185;28;20709;-61
2022/09/01 10:40:20;;;;;;;12.15;6.32;;;;;;;29.94;100.00;153576.75;5092120;28;20632;-61
2022/09/01 10:42:52;;;;;;;6.93;6.50;;;;;;;30.23;100.00;153649.78;5091697;28;20190;-61
2022/09/01 10:45:32;;;;;;;9.85;6.95;;;;;;;30.37;100.00;153685.69;5091477;28;20188;-61
2022/09/01 10:48:25;;;;;;;8.18;6.45;;;;;;;30.38;100.00;153689.50;5091492;28;20264;-62
2022/09/01 10:51:13;;;;;;;13.25;7.25;;;;;;;29.61;100.00;153493.41;5092325;28;20208;-60
2022/09/01 10:53:41;;;;;;;11.45;6.88;;;;;;;29.33;100.00;153422.94;5091492;28;20578;-61
2022/09/01 10:56:11;;;;;;;6.50;6.10;;;;;;;29.44;100.00;153451.16;5091596;28;20216;-60
2022/09/01 10:59:00;;;;;;;7.05;6.40;;;;;;;29.62;100.00;153494.72;5091887;28;20188;-61
2022/09/01 11:02:00;;;;;;;7.30;6.57;;;;;;;29.65;100.00;153502.38;5091529;28;20225;-62
2022/09/01 11:05:19;;;;;;;8.05;6.45;;;;;;;29.24;100.00;153399.81;5078706;28;20203;-61
2022/09/01 11:07:46;;;;;;;7.50;6.80;;;;;;;29.13;100.00;153371.66;5091880;28;20181;-61
2022/09/01 11:10:38;;;;;;;10.93;7.70;;;;;;;29.17;100.00;153381.91;5091865;28;20615;-61
2022/09/01 11:13:36;;;;;;;7.38;6.72;;;;;;;29.07;100.00;153356.28;5091509;28;20195;-61
2022/09/01 11:16:34;;;;;;;8.65;6.57;;;;;;;29.00;100.00;153338.38;5091344;28;20184;-59
2022/09/01 11:19:32;;;;;;;7.25;6.65;;;;;;;29.03;100.00;153346.03;5030517;28;20249;-58
2022/09/01 11:22:23;;;;;;;7.43;6.63;;;;;;;28.74;100.00;153273.03;5084151;28;20286;-61
2022/09/01 11:25:05;;;;;;;10.38;7.38;;;;;;;28.68;100.00;153256.38;5074987;28;20196;-61
2022/09/01 11:28:01;;;;;;;8.60;7.80;;;;;;;28.64;100.00;153246.13;5091197;28;20204;-61
2022/09/01 11:30:49;;;;;;;9.75;7.38;;;;;;;28.40;100.00;153185.94;5078756;28;20216;-61
2022/09/01 11:33:31;;;;;;;7.15;6.50;;;;;;;28.30;100.00;153161.66;5075258;28;20639;-63
2022/09/01 11:36:01;;;;;;;7.07;6.45;;;;;;;28.06;100.00;153100.13;5075010;28;20189;-62
2022/09/01 11:38:34;;;;;;;7.85;6.75;;;;;;;27.99;100.00;153083.50;5074924;28;20217;-61
2022/09/01 11:41:00;;;;;;;10.43;7.22;;;;;;;27.94;100.00;153070.69;5074811;28;20267;-61